Time;durP1;ratioP1;P1;durP2;ratioP2;P2;SDS_P1;SDS_P2;PMS_P1;PMS_P2;Temp;Humidity;BMP_temperature;BMP_pressure;BME280_temperature;BME280_humidity;BME280_pressure;Samples;Min_cycle;Max_cycle;Signal;HPM_P1;HPM_P2
2023/12/29 00:00:16;;;;;;;132.23;51.47;;;;;;;;;;4953256;28;20410;-44
2023/12/29 00:02:42;;;;;;;129.48;50.28;;;;;;;;;;4953530;28;20449;-44
2023/12/29 00:05:08;;;;;;;133.37;51.87;;;;;;;;;;4953348;28;20198;-44
2023/12/29 00:07:34;;;;;;;130.13;50.20;;;;;;;;;;4953184;28;20432;-44
2023/12/29 00:10:00;;;;;;;134.52;51.42;;;;;;;;;;4953279;28;20175;-44
2023/12/29 00:12:26;;;;;;;131.57;49.63;;;;;;;;;;4952841;28;20214;-44
2023/12/29 00:14:52;;;;;;;132.97;52.23;;;;;;;;;;4953337;28;20417;-44
2023/12/29 00:17:18;;;;;;;131.67;49.83;;;;;;;;;;4953129;28;20469;-44
2023/12/29 00:19:44;;;;;;;128.83;50.13;;;;;;;;;;4953138;28;20494;-44
2023/12/29 00:22:10;;;;;;;133.03;51.33;;;;;;;;;;4952691;28;20496;-44
2023/12/29 00:24:36;;;;;;;130.57;49.73;;;;;;;;;;4953342;28;20449;-44
2023/12/29 00:27:02;;;;;;;131.97;50.20;;;;;;;;;;4953405;28;20410;-44
2023/12/29 00:29:32;;;;;;;138.70;51.13;;;;;;;;;;4953264;28;20413;-43
2023/12/29 00:31:58;;;;;;;136.93;50.00;;;;;;;;;;4969188;28;20468;-44
2023/12/29 00:34:24;;;;;;;137.43;51.60;;;;;;;;;;4959720;28;20171;-44
2023/12/29 00:36:50;;;;;;;135.50;52.47;;;;;;;;;;4963196;28;20570;-45
2023/12/29 00:39:16;;;;;;;137.57;51.57;;;;;;;;;;4970937;28;20411;-44
2023/12/29 00:41:42;;;;;;;134.53;49.43;;;;;;;;;;4956715;28;20507;-44
2023/12/29 00:44:08;;;;;;;130.87;50.20;;;;;;;;;;4975900;28;20416;-44
2023/12/29 00:46:34;;;;;;;134.13;50.00;;;;;;;;;;4975071;28;20421;-44
2023/12/29 00:49:00;;;;;;;130.20;50.45;;;;;;;;;;4951484;28;20179;-44
2023/12/29 00:51:26;;;;;;;130.80;50.83;;;;;;;;;;4944626;28;20571;-44
2023/12/29 00:53:52;;;;;;;144.43;56.37;;;;;;;;;;4952546;28;20411;-44
2023/12/29 00:56:18;;;;;;;149.80;57.63;;;;;;;;;;4937224;29;20395;-44
2023/12/29 00:58:44;;;;;;;131.63;50.73;;;;;;;;;;4956296;29;20402;-44
2023/12/29 01:01:11;;;;;;;134.20;50.90;;;;;;;;;;4940818;28;20411;-45
2023/12/29 01:03:37;;;;;;;135.93;52.08;;;;;;;;;;4948059;29;20666;-44
2023/12/29 01:06:03;;;;;;;132.10;50.47;;;;;;;;;;4948651;28;20242;-44
2023/12/29 01:08:29;;;;;;;130.55;49.83;;;;;;;;;;4941071;29;20416;-45
2023/12/29 01:10:55;;;;;;;154.70;58.23;;;;;;;;;;4955879;28;20181;-45
2023/12/29 01:13:21;;;;;;;133.63;51.60;;;;;;;;;;4937259;28;20441;-45
2023/12/29 01:15:47;;;;;;;131.70;50.40;;;;;;;;;;4951582;29;20417;-44
2023/12/29 01:18:13;;;;;;;133.17;50.90;;;;;;;;;;4945009;28;21154;-45
2023/12/29 01:20:39;;;;;;;125.43;50.93;;;;;;;;;;4943448;28;20429;-45
2023/12/29 01:23:05;;;;;;;128.02;49.20;;;;;;;;;;4952779;28;20427;-45
2023/12/29 01:25:31;;;;;;;133.80;50.97;;;;;;;;;;4936939;29;20177;-45
2023/12/29 01:27:57;;;;;;;133.30;51.83;;;;;;;;;;4954990;29;20174;-45
2023/12/29 01:30:23;;;;;;;131.37;51.77;;;;;;;;;;4941519;28;20407;-45
2023/12/29 01:32:49;;;;;;;158.75;65.03;;;;;;;;;;4946584;29;20476;-45
2023/12/29 01:35:15;;;;;;;132.53;50.87;;;;;;;;;;4949206;28;20179;-45
2023/12/29 01:37:42;;;;;;;130.40;50.00;;;;;;;;;;4938940;29;20509;-45
2023/12/29 01:40:09;;;;;;;133.00;49.88;;;;;;;;;;4955424;28;20435;-45
2023/12/29 01:42:34;;;;;;;134.95;50.53;;;;;;;;;;4937302;28;20294;-45
2023/12/29 01:45:01;;;;;;;133.47;49.93;;;;;;;;;;4950438;29;20191;-45
2023/12/29 01:47:27;;;;;;;132.32;55.85;;;;;;;;;;4945316;28;20935;-45
2023/12/29 01:49:53;;;;;;;135.10;50.05;;;;;;;;;;4954651;29;20633;-45
2023/12/29 01:52:20;;;;;;;160.40;56.58;;;;;;;;;;4955033;28;20217;-45
2023/12/29 01:54:48;;;;;;;135.30;49.75;;;;;;;;;;4955228;28;20611;-45
2023/12/29 01:57:14;;;;;;;135.20;50.47;;;;;;;;;;4955199;28;20183;-45
2023/12/29 01:59:41;;;;;;;139.60;50.97;;;;;;;;;;4958674;28;20520;-44
2023/12/29 02:02:07;;;;;;;148.73;53.33;;;;;;;;;;4954281;28;20203;-45
2023/12/29 02:04:33;;;;;;;136.50;49.03;;;;;;;;;;4954191;28;20694;-45
2023/12/29 02:06:59;;;;;;;140.60;47.30;;;;;;;;;;4954686;28;20305;-45
2023/12/29 02:09:26;;;;;;;147.03;49.37;;;;;;;;;;4947826;29;20647;-45
2023/12/29 02:11:52;;;;;;;147.15;47.50;;;;;;;;;;4954531;28;20557;-45
2023/12/29 02:14:19;;;;;;;147.63;48.47;;;;;;;;;;4954421;28;20269;-44
2023/12/29 02:16:45;;;;;;;151.45;50.67;;;;;;;;;;4954796;28;20456;-45
2023/12/29 02:19:24;;;;;;;151.33;50.17;;;;;;;;;;4954929;28;20182;-45
2023/12/29 02:21:50;;;;;;;144.63;46.28;;;;;;;;;;4954535;28;20425;-45
2023/12/29 02:24:16;;;;;;;197.87;57.57;;;;;;;;;;4954526;28;20663;-45
2023/12/29 02:26:44;;;;;;;204.43;60.27;;;;;;;;;;4954606;28;21547;-44
2023/12/29 02:29:13;;;;;;;203.15;58.75;;;;;;;;;;4954480;28;20493;-45
2023/12/29 02:31:40;;;;;;;208.90;60.80;;;;;;;;;;4954206;28;20214;-44
2023/12/29 02:34:07;;;;;;;210.00;59.33;;;;;;;;;;4954333;28;20181;-45
2023/12/29 02:36:34;;;;;;;211.15;59.80;;;;;;;;;;4954398;28;20186;-44
2023/12/29 02:39:00;;;;;;;213.70;60.55;;;;;;;;;;4954165;28;20600;-44
2023/12/29 02:41:26;;;;;;;215.43;60.23;;;;;;;;;;4954018;28;20209;-45
2023/12/29 02:43:52;;;;;;;215.18;60.15;;;;;;;;;;4954109;28;20777;-44
2023/12/29 02:46:18;;;;;;;210.53;57.40;;;;;;;;;;4954159;28;20178;-44
2023/12/29 02:48:44;;;;;;;215.20;59.78;;;;;;;;;;4954166;28;20514;-44
2023/12/29 02:51:10;;;;;;;213.10;56.83;;;;;;;;;;4953732;28;20272;-45
2023/12/29 02:53:36;;;;;;;216.87;60.57;;;;;;;;;;4953839;28;20824;-45
2023/12/29 02:56:01;;;;;;;214.53;57.47;;;;;;;;;;4953961;28;20478;-44
2023/12/29 02:58:27;;;;;;;214.13;57.47;;;;;;;;;;4953940;28;20424;-44
2023/12/29 03:00:53;;;;;;;213.20;56.63;;;;;;;;;;4953736;28;20446;-45
2023/12/29 03:03:19;;;;;;;214.73;59.80;;;;;;;;;;4953765;28;20433;-44
2023/12/29 03:05:45;;;;;;;214.67;60.37;;;;;;;;;;4953874;28;20438;-45
2023/12/29 03:08:11;;;;;;;214.48;58.95;;;;;;;;;;4953550;28;20422;-45
2023/12/29 03:10:37;;;;;;;215.37;58.67;;;;;;;;;;4953565;28;20245;-45
2023/12/29 03:13:04;;;;;;;211.37;56.60;;;;;;;;;;4953502;28;20469;-45
2023/12/29 03:15:30;;;;;;;214.82;58.13;;;;;;;;;;4953730;28;20402;-45
2023/12/29 03:17:56;;;;;;;211.23;56.87;;;;;;;;;;4953640;28;20209;-45
2023/12/29 03:20:21;;;;;;;212.80;57.40;;;;;;;;;;4953608;28;20429;-45
2023/12/29 03:22:47;;;;;;;214.07;58.60;;;;;;;;;;4953390;28;20418;-45
2023/12/29 03:25:13;;;;;;;212.33;57.07;;;;;;;;;;4953799;28;20800;-45
2023/12/29 03:27:39;;;;;;;213.30;56.70;;;;;;;;;;4953748;28;20834;-45
2023/12/29 03:30:06;;;;;;;214.02;56.30;;;;;;;;;;4953699;28;20464;-45
2023/12/29 03:32:32;;;;;;;211.70;56.22;;;;;;;;;;4953157;28;20257;-45
2023/12/29 03:34:58;;;;;;;211.33;56.10;;;;;;;;;;4953480;28;20182;-45
2023/12/29 03:37:24;;;;;;;215.03;58.87;;;;;;;;;;4953364;28;20414;-46
2023/12/29 03:39:49;;;;;;;212.37;55.77;;;;;;;;;;4953571;28;20416;-45
2023/12/29 03:42:15;;;;;;;212.27;57.20;;;;;;;;;;4952955;28;20421;-46
2023/12/29 03:44:41;;;;;;;215.13;59.80;;;;;;;;;;4953575;28;20910;-45
2023/12/29 03:47:10;;;;;;;213.97;58.47;;;;;;;;;;4953019;28;20910;-45
2023/12/29 03:49:36;;;;;;;211.63;55.80;;;;;;;;;;4953721;28;20467;-45
2023/12/29 03:52:02;;;;;;;211.02;55.92;;;;;;;;;;4953254;28;20381;-45
2023/12/29 03:54:28;;;;;;;213.67;59.53;;;;;;;;;;4969510;28;20629;-45
2023/12/29 03:59:57;;;;;;;210.95;57.45;;;;;;;;;;4966450;28;20419;-44
2023/12/29 04:02:23;;;;;;;210.57;57.20;;;;;;;;;;4963136;28;20622;-45
2023/12/29 04:04:49;;;;;;;208.53;56.63;;;;;;;;;;4958362;28;20792;-44
2023/12/29 04:07:15;;;;;;;210.45;57.40;;;;;;;;;;4971512;28;20424;-46
2023/12/29 04:09:41;;;;;;;207.37;58.03;;;;;;;;;;4953472;28;20262;-45
2023/12/29 04:12:07;;;;;;;162.53;47.87;;;;;;;;;;4971570;28;20469;-46
2023/12/29 04:14:33;;;;;;;204.85;58.17;;;;;;;;;;4963832;28;20418;-45
2023/12/29 04:17:02;;;;;;;206.60;61.60;;;;;;;;;;4965380;28;20174;-46
2023/12/29 04:19:28;;;;;;;206.75;61.28;;;;;;;;;;4971130;28;20410;-45
2023/12/29 04:21:54;;;;;;;204.53;59.90;;;;;;;;;;4957627;28;20688;-46
2023/12/29 04:24:20;;;;;;;164.10;48.47;;;;;;;;;;4976237;28;20845;-46
2023/12/29 04:26:46;;;;;;;160.20;47.87;;;;;;;;;;4959645;28;20835;-46
2023/12/29 04:29:12;;;;;;;163.47;48.53;;;;;;;;;;4969109;28;20438;-45
2023/12/29 04:31:38;;;;;;;160.77;48.13;;;;;;;;;;4967173;28;20488;-46
2023/12/29 04:34:04;;;;;;;161.53;48.53;;;;;;;;;;4961203;28;20408;-45
2023/12/29 04:36:30;;;;;;;160.53;50.10;;;;;;;;;;4975576;28;20398;-45
2023/12/29 04:38:56;;;;;;;149.73;45.27;;;;;;;;;;4956796;28;20406;-46
2023/12/29 04:41:22;;;;;;;151.30;47.33;;;;;;;;;;4972095;28;20441;-46
2023/12/29 04:43:48;;;;;;;150.67;46.27;;;;;;;;;;4963829;28;20422;-46
2023/12/29 04:46:14;;;;;;;150.70;46.53;;;;;;;;;;4964195;28;20471;-46
2023/12/29 04:48:39;;;;;;;154.53;47.97;;;;;;;;;;4971829;28;20456;-45
2023/12/29 04:51:05;;;;;;;158.17;48.73;;;;;;;;;;4956282;28;20405;-45
2023/12/29 04:53:31;;;;;;;151.50;48.07;;;;;;;;;;4975345;28;20436;-46
2023/12/29 04:55:57;;;;;;;151.40;46.38;;;;;;;;;;4960383;28;20413;-45
2023/12/29 04:58:23;;;;;;;193.93;55.87;;;;;;;;;;4956341;28;20176;-45
2023/12/29 05:00:49;;;;;;;202.70;59.17;;;;;;;;;;4955415;28;20411;-46
2023/12/29 05:03:15;;;;;;;202.97;56.93;;;;;;;;;;4952761;28;20450;-46
2023/12/29 05:05:41;;;;;;;203.30;58.00;;;;;;;;;;4937004;29;20434;-46
2023/12/29 05:08:07;;;;;;;201.73;56.13;;;;;;;;;;4955316;29;20414;-46
2023/12/29 05:10:35;;;;;;;207.40;62.73;;;;;;;;;;4941185;28;20924;-46
2023/12/29 05:13:01;;;;;;;204.88;58.67;;;;;;;;;;4947845;29;20470;-46
2023/12/29 05:15:27;;;;;;;202.00;56.85;;;;;;;;;;4948899;28;20175;-45
2023/12/29 05:17:52;;;;;;;200.57;58.40;;;;;;;;;;4939575;29;20182;-45
2023/12/29 05:20:18;;;;;;;159.47;46.97;;;;;;;;;;4955900;28;20409;-46
2023/12/29 05:22:44;;;;;;;153.53;47.97;;;;;;;;;;4936473;28;20448;-46
2023/12/29 05:25:10;;;;;;;160.33;49.47;;;;;;;;;;4950738;29;20818;-46
2023/12/29 05:27:36;;;;;;;203.32;58.30;;;;;;;;;;4945399;28;20419;-47
2023/12/29 05:30:02;;;;;;;203.87;59.70;;;;;;;;;;4942616;29;20650;-46
2023/12/29 05:32:28;;;;;;;202.38;59.00;;;;;;;;;;4952969;28;20498;-46
2023/12/29 05:34:54;;;;;;;151.77;46.70;;;;;;;;;;4936730;29;20206;-46
2023/12/29 05:37:20;;;;;;;159.03;47.87;;;;;;;;;;4954026;28;20457;-46
2023/12/29 05:39:46;;;;;;;153.10;48.42;;;;;;;;;;4941787;28;20415;-46
2023/12/29 05:42:12;;;;;;;200.13;60.20;;;;;;;;;;4945653;28;20197;-45
2023/12/29 05:44:38;;;;;;;150.37;47.53;;;;;;;;;;4949519;28;20426;-46
2023/12/29 05:47:07;;;;;;;200.90;61.43;;;;;;;;;;4937917;29;20415;-46
2023/12/29 05:49:39;;;;;;;153.85;48.55;;;;;;;;;;4955442;28;20406;-46
2023/12/29 05:52:05;;;;;;;161.25;50.72;;;;;;;;;;4936686;28;20283;-46
2023/12/29 05:54:31;;;;;;;160.13;50.88;;;;;;;;;;4950335;29;20280;-45
2023/12/29 05:56:57;;;;;;;151.07;50.43;;;;;;;;;;4948049;28;20655;-45
2023/12/29 05:59:23;;;;;;;145.67;48.10;;;;;;;;;;4948845;28;20419;-45
2023/12/29 06:01:49;;;;;;;153.17;50.00;;;;;;;;;;4938363;29;20451;-45
2023/12/29 06:04:15;;;;;;;154.20;49.83;;;;;;;;;;4954983;28;20913;-45
2023/12/29 06:06:45;;;;;;;152.37;49.90;;;;;;;;;;4937285;28;20278;-45
2023/12/29 06:09:11;;;;;;;154.30;48.78;;;;;;;;;;4949879;29;20847;-45
2023/12/29 06:11:37;;;;;;;191.37;61.80;;;;;;;;;;4944470;28;20219;-45
2023/12/29 06:14:03;;;;;;;152.77;49.90;;;;;;;;;;4941785;29;20527;-45
2023/12/29 06:16:30;;;;;;;146.65;48.17;;;;;;;;;;4952043;28;20418;-45
2023/12/29 06:18:56;;;;;;;191.43;59.60;;;;;;;;;;4934746;29;20175;-45
2023/12/29 06:21:22;;;;;;;156.90;50.50;;;;;;;;;;4952853;28;20178;-44
2023/12/29 06:23:48;;;;;;;200.43;67.63;;;;;;;;;;4939957;28;20638;-46
2023/12/29 06:26:15;;;;;;;151.52;49.85;;;;;;;;;;4954091;28;21547;-45
2023/12/29 06:28:41;;;;;;;154.05;49.72;;;;;;;;;;4953442;28;20612;-45
2023/12/29 06:31:07;;;;;;;153.63;50.87;;;;;;;;;;4954308;28;20182;-46
2023/12/29 06:33:33;;;;;;;149.40;48.23;;;;;;;;;;4954240;28;20439;-45
2023/12/29 06:35:59;;;;;;;151.80;49.13;;;;;;;;;;4954239;28;20779;-45
2023/12/29 06:38:25;;;;;;;186.00;62.75;;;;;;;;;;4954046;28;20260;-45
2023/12/29 06:40:51;;;;;;;141.53;48.50;;;;;;;;;;4954120;28;20804;-45
2023/12/29 06:43:17;;;;;;;188.07;63.20;;;;;;;;;;4953729;28;20425;-45
2023/12/29 06:45:43;;;;;;;162.75;55.67;;;;;;;;;;4953536;28;20174;-44
2023/12/29 06:48:09;;;;;;;149.53;50.83;;;;;;;;;;4954095;28;20260;-46
2023/12/29 06:50:36;;;;;;;154.87;53.87;;;;;;;;;;4953871;28;20417;-45
2023/12/29 06:53:03;;;;;;;154.05;50.22;;;;;;;;;;4953571;28;20472;-45
2023/12/29 06:55:29;;;;;;;153.30;50.60;;;;;;;;;;4954089;28;20243;-45
2023/12/29 06:57:55;;;;;;;153.57;51.30;;;;;;;;;;4953949;28;20190;-45
2023/12/29 07:00:21;;;;;;;148.87;51.13;;;;;;;;;;4953866;28;20489;-45
2023/12/29 07:02:47;;;;;;;145.97;49.10;;;;;;;;;;4953841;28;20421;-46
2023/12/29 07:05:13;;;;;;;153.25;50.38;;;;;;;;;;4953813;28;20495;-44
2023/12/29 07:07:39;;;;;;;151.90;49.70;;;;;;;;;;4954292;28;20179;-45
2023/12/29 07:10:06;;;;;;;144.65;48.40;;;;;;;;;;4953870;28;20610;-45
2023/12/29 07:12:32;;;;;;;152.75;49.38;;;;;;;;;;4953510;28;20205;-46
2023/12/29 07:14:58;;;;;;;150.20;49.17;;;;;;;;;;4954038;28;20233;-46
2023/12/29 07:17:23;;;;;;;152.27;49.53;;;;;;;;;;4953869;28;20785;-45
2023/12/29 07:19:49;;;;;;;151.27;49.07;;;;;;;;;;4953644;28;20430;-46
2023/12/29 07:22:15;;;;;;;150.50;50.10;;;;;;;;;;4953283;28;20434;-45
2023/12/29 07:24:41;;;;;;;152.07;47.53;;;;;;;;;;4953807;28;20691;-45
2023/12/29 07:27:07;;;;;;;154.82;49.05;;;;;;;;;;4953626;28;20185;-45
2023/12/29 07:29:34;;;;;;;155.50;47.67;;;;;;;;;;4953816;28;20186;-45
2023/12/29 07:32:00;;;;;;;158.38;49.50;;;;;;;;;;4953073;28;20465;-45
2023/12/29 07:34:27;;;;;;;157.93;47.28;;;;;;;;;;4953609;28;20174;-46
2023/12/29 07:36:53;;;;;;;201.38;60.47;;;;;;;;;;4953351;28;20166;-46
2023/12/29 07:39:19;;;;;;;160.70;47.08;;;;;;;;;;4953492;28;20162;-45
2023/12/29 07:41:45;;;;;;;200.50;56.20;;;;;;;;;;4953319;28;20228;-45
2023/12/29 07:44:12;;;;;;;204.10;56.63;;;;;;;;;;4953354;28;20553;-45
2023/12/29 07:46:39;;;;;;;206.07;57.03;;;;;;;;;;4954938;28;20248;-45
2023/12/29 07:49:05;;;;;;;204.10;55.47;;;;;;;;;;4957342;28;20175;-45
2023/12/29 07:51:31;;;;;;;206.35;55.97;;;;;;;;;;4956932;28;20582;-44
2023/12/29 07:53:57;;;;;;;206.00;56.10;;;;;;;;;;4957231;28;20585;-45
2023/12/29 07:56:23;;;;;;;205.05;55.00;;;;;;;;;;4957343;28;20196;-45
2023/12/29 07:58:49;;;;;;;204.20;54.67;;;;;;;;;;4957255;28;20170;-44
2023/12/29 08:01:15;;;;;;;204.13;53.60;;;;;;;;;;4957019;28;20429;-44
2023/12/29 08:03:41;;;;;;;204.50;54.00;;;;;;;;;;4956868;28;20485;-44
2023/12/29 08:06:07;;;;;;;205.40;55.63;;;;;;;;;;4956943;28;20498;-45
2023/12/29 08:08:34;;;;;;;203.30;54.22;;;;;;;;;;4957068;28;20924;-45
2023/12/29 08:11:00;;;;;;;205.60;55.05;;;;;;;;;;4956746;28;20170;-45
2023/12/29 08:13:26;;;;;;;203.77;54.27;;;;;;;;;;4956799;28;20214;-45
2023/12/29 08:15:52;;;;;;;204.67;54.10;;;;;;;;;;4956933;28;20778;-45
2023/12/29 08:18:18;;;;;;;203.53;53.47;;;;;;;;;;4957089;28;20406;-45
2023/12/29 08:20:44;;;;;;;206.98;56.33;;;;;;;;;;4956547;28;20449;-45
2023/12/29 08:23:10;;;;;;;206.48;55.38;;;;;;;;;;4956645;28;20202;-45
2023/12/29 08:25:38;;;;;;;205.00;54.65;;;;;;;;;;4956790;28;20654;-45
2023/12/29 08:28:05;;;;;;;205.88;54.97;;;;;;;;;;4956668;28;20589;-45
2023/12/29 08:30:31;;;;;;;209.10;57.25;;;;;;;;;;4956499;28;20265;-44
2023/12/29 08:32:57;;;;;;;203.97;54.90;;;;;;;;;;4956283;28;20353;-44
2023/12/29 08:35:23;;;;;;;202.80;54.80;;;;;;;;;;4956817;28;20402;-44
2023/12/29 08:37:49;;;;;;;201.63;53.67;;;;;;;;;;4956609;28;20406;-44
2023/12/29 08:40:16;;;;;;;204.97;56.20;;;;;;;;;;4956450;28;20920;-44
2023/12/29 08:42:42;;;;;;;199.50;52.97;;;;;;;;;;4956183;28;20926;-44
2023/12/29 08:45:08;;;;;;;200.17;53.67;;;;;;;;;;4956443;28;20201;-45
2023/12/29 08:47:34;;;;;;;201.85;54.75;;;;;;;;;;4956208;28;20432;-44
2023/12/29 08:50:01;;;;;;;201.17;55.43;;;;;;;;;;4956343;28;20647;-44
2023/12/29 08:52:27;;;;;;;201.35;54.20;;;;;;;;;;4955608;28;20487;-45
2023/12/29 08:54:53;;;;;;;199.53;54.23;;;;;;;;;;4956550;28;20635;-44
2023/12/29 08:57:19;;;;;;;202.80;55.22;;;;;;;;;;4957402;28;20405;-45
2023/12/29 08:59:45;;;;;;;148.50;41.23;;;;;;;;;;4960071;28;20205;-45
2023/12/29 09:02:11;;;;;;;201.17;55.23;;;;;;;;;;4963940;28;20468;-45
2023/12/29 09:04:37;;;;;;;197.25;52.45;;;;;;;;;;4960734;28;20792;-45
2023/12/29 09:07:05;;;;;;;200.67;54.03;;;;;;;;;;4956036;28;20179;-45
2023/12/29 09:09:31;;;;;;;199.15;53.40;;;;;;;;;;4955307;28;20412;-44
2023/12/29 09:11:57;;;;;;;202.37;56.03;;;;;;;;;;4960493;28;20209;-44
2023/12/29 09:14:23;;;;;;;154.00;45.63;;;;;;;;;;4959825;28;20492;-45
2023/12/29 09:16:50;;;;;;;202.03;54.63;;;;;;;;;;4961110;28;20412;-45
2023/12/29 09:19:16;;;;;;;153.95;45.38;;;;;;;;;;4955666;28;20753;-45
2023/12/29 09:21:42;;;;;;;204.45;57.75;;;;;;;;;;4955207;28;20205;-45
2023/12/29 09:24:08;;;;;;;162.13;47.53;;;;;;;;;;4955567;28;20553;-44
2023/12/29 09:26:34;;;;;;;206.57;59.80;;;;;;;;;;4955419;28;20420;-45
2023/12/29 09:29:00;;;;;;;201.75;54.50;;;;;;;;;;4955523;28;20425;-44
2023/12/29 09:31:26;;;;;;;204.57;54.80;;;;;;;;;;4954209;28;20666;-45
2023/12/29 09:33:52;;;;;;;202.27;55.77;;;;;;;;;;4954463;28;20921;-45
2023/12/29 09:36:18;;;;;;;201.50;54.57;;;;;;;;;;4956248;28;20437;-45
2023/12/29 09:38:46;;;;;;;202.10;56.33;;;;;;;;;;4956673;28;20925;-45
2023/12/29 09:41:14;;;;;;;195.98;55.53;;;;;;;;;;4958819;28;20409;-45
2023/12/29 09:43:42;;;;;;;153.88;41.33;;;;;;;;;;4958761;28;20198;-45
2023/12/29 09:46:08;;;;;;;204.48;58.22;;;;;;;;;;4956326;28;20174;-44
2023/12/29 09:48:37;;;;;;;201.98;53.67;;;;;;;;;;4954799;28;20550;-45
2023/12/29 09:51:05;;;;;;;195.05;53.40;;;;;;;;;;4954827;28;20189;-45
2023/12/29 09:53:31;;;;;;;201.70;53.08;;;;;;;;;;4954470;28;20285;-46
2023/12/29 09:55:59;;;;;;;162.13;46.28;;;;;;;;;;4958291;28;20701;-45
2023/12/29 09:58:25;;;;;;;205.75;55.78;;;;;;;;;;4960251;28;20170;-44
2023/12/29 10:00:51;;;;;;;205.93;54.27;;;;;;;;;;4953687;28;20549;-45
2023/12/29 10:03:18;;;;;;;202.98;52.75;;;;;;;;;;4953444;28;20460;-44
2023/12/29 10:05:48;;;;;;;203.57;53.38;;;;;;;;;;4955671;28;20224;-44
2023/12/29 10:08:14;;;;;;;205.93;57.25;;;;;;;;;;4957146;28;20479;-45
2023/12/29 10:10:42;;;;;;;210.35;58.40;;;;;;;;;;4955383;28;20666;-45
2023/12/29 10:13:10;;;;;;;202.02;53.70;;;;;;;;;;4955434;28;20237;-44
2023/12/29 10:15:50;;;;;;;205.45;57.05;;;;;;;;;;4955136;28;20193;-44
2023/12/29 10:18:27;;;;;;;204.70;57.03;;;;;;;;;;4955060;28;20202;-44
2023/12/29 10:20:53;;;;;;;166.38;44.88;;;;;;;;;;4957638;28;20650;-45
2023/12/29 10:23:31;;;;;;;204.45;54.25;;;;;;;;;;4970129;28;20210;-44
2023/12/29 10:25:57;;;;;;;220.38;66.68;;;;;;;;;;4960393;28;20575;-45
2023/12/29 10:28:23;;;;;;;203.18;53.63;;;;;;;;;;4963637;28;20181;-44
2023/12/29 10:30:49;;;;;;;205.05;53.95;;;;;;;;;;4968663;28;20189;-45
2023/12/29 10:33:22;;;;;;;209.63;58.27;;;;;;;;;;4954100;28;20225;-45
2023/12/29 10:36:02;;;;;;;204.60;54.80;;;;;;;;;;4953848;29;20425;-45
2023/12/29 10:38:28;;;;;;;204.90;55.33;;;;;;;;;;4973540;28;20172;-44
2023/12/29 10:40:54;;;;;;;203.68;54.05;;;;;;;;;;4957567;28;20182;-44
2023/12/29 10:43:24;;;;;;;205.03;55.33;;;;;;;;;;4960871;28;20206;-44
2023/12/29 10:45:49;;;;;;;208.20;57.20;;;;;;;;;;4958217;28;20520;-44
2023/12/29 10:48:24;;;;;;;198.57;53.97;;;;;;;;;;4954202;28;20264;-44
2023/12/29 10:50:50;;;;;;;203.00;53.97;;;;;;;;;;4954118;28;20422;-44
2023/12/29 10:53:17;;;;;;;203.93;54.78;;;;;;;;;;4966838;28;20581;-45
2023/12/29 10:55:43;;;;;;;199.95;53.65;;;;;;;;;;4953933;28;20185;-43
2023/12/29 10:58:09;;;;;;;204.68;54.25;;;;;;;;;;4953874;28;20174;-44
2023/12/29 11:00:35;;;;;;;206.40;58.38;;;;;;;;;;4954253;28;20205;-44
2023/12/29 11:03:01;;;;;;;206.40;58.65;;;;;;;;;;4951707;28;20249;-44
2023/12/29 11:05:27;;;;;;;204.00;56.22;;;;;;;;;;4954079;28;20203;-44
2023/12/29 11:07:54;;;;;;;205.13;54.47;;;;;;;;;;4972756;28;20173;-44
2023/12/29 11:10:21;;;;;;;207.73;58.17;;;;;;;;;;4959997;28;20271;-44
2023/12/29 11:12:47;;;;;;;202.20;54.67;;;;;;;;;;4962468;28;20280;-45
2023/12/29 11:15:14;;;;;;;207.13;55.55;;;;;;;;;;4951987;28;20229;-45
2023/12/29 11:17:49;;;;;;;207.35;55.47;;;;;;;;;;4949118;28;20186;-45
2023/12/29 11:20:16;;;;;;;208.10;58.28;;;;;;;;;;4949937;29;20721;-44
2023/12/29 11:22:42;;;;;;;209.60;58.58;;;;;;;;;;4952183;28;20609;-44
2023/12/29 11:25:08;;;;;;;205.33;54.43;;;;;;;;;;4951580;28;20209;-44
2023/12/29 11:27:35;;;;;;;205.70;53.83;;;;;;;;;;4952446;28;20427;-45
2023/12/29 11:30:02;;;;;;;208.52;56.50;;;;;;;;;;4948047;28;20652;-45
2023/12/29 11:32:36;;;;;;;164.77;45.17;;;;;;;;;;4947090;28;20214;-45
2023/12/29 11:35:25;;;;;;;208.85;56.83;;;;;;;;;;4941195;29;20265;-44
2023/12/29 11:37:51;;;;;;;207.82;57.67;;;;;;;;;;4946113;29;20556;-45
2023/12/29 11:40:22;;;;;;;154.80;42.25;;;;;;;;;;4951691;29;20233;-45
2023/12/29 11:42:49;;;;;;;165.68;46.40;;;;;;;;;;4945960;28;20272;-45
2023/12/29 11:45:37;;;;;;;165.27;45.70;;;;;;;;;;4952313;29;20175;-44
2023/12/29 11:48:03;;;;;;;207.70;59.85;;;;;;;;;;4948608;29;20646;-44
2023/12/29 11:50:38;;;;;;;206.80;58.28;;;;;;;;;;4952446;28;20214;-44
2023/12/29 11:53:04;;;;;;;206.15;57.90;;;;;;;;;;4946960;28;20206;-44
2023/12/29 11:55:31;;;;;;;204.98;57.95;;;;;;;;;;4938214;29;20264;-44
2023/12/29 11:57:58;;;;;;;162.55;48.65;;;;;;;;;;4952969;28;20259;-45
2023/12/29 12:00:43;;;;;;;202.82;57.92;;;;;;;;;;4952375;28;20260;-44
2023/12/29 12:03:21;;;;;;;162.00;45.78;;;;;;;;;;4937365;28;20667;-45
2023/12/29 12:05:50;;;;;;;161.50;45.67;;;;;;;;;;4947371;29;20225;-45
2023/12/29 12:08:31;;;;;;;207.10;57.75;;;;;;;;;;4947497;28;20186;-45
2023/12/29 12:11:18;;;;;;;164.32;46.28;;;;;;;;;;4948629;28;20576;-44
2023/12/29 12:13:45;;;;;;;208.48;58.30;;;;;;;;;;4946276;28;20223;-44
2023/12/29 12:16:30;;;;;;;208.20;59.00;;;;;;;;;;4937201;29;20269;-44
2023/12/29 12:18:57;;;;;;;165.43;49.03;;;;;;;;;;4951625;28;20217;-46
2023/12/29 12:21:24;;;;;;;206.82;58.67;;;;;;;;;;4947467;29;20233;-45
2023/12/29 12:23:50;;;;;;;209.43;59.72;;;;;;;;;;4936000;28;20190;-44
2023/12/29 12:26:17;;;;;;;214.30;63.17;;;;;;;;;;4947480;29;20214;-44
2023/12/29 12:28:45;;;;;;;209.65;61.63;;;;;;;;;;4945696;29;20269;-45
2023/12/29 12:31:13;;;;;;;209.90;59.00;;;;;;;;;;4946930;28;20183;-44
2023/12/29 12:33:39;;;;;;;213.07;63.47;;;;;;;;;;4952940;28;20277;-45
2023/12/29 12:36:06;;;;;;;163.47;47.30;;;;;;;;;;4947528;29;20639;-44
2023/12/29 12:38:33;;;;;;;155.40;45.78;;;;;;;;;;4954850;28;20415;-45
2023/12/29 12:41:09;;;;;;;207.32;57.13;;;;;;;;;;4941927;28;20168;-45
2023/12/29 12:43:36;;;;;;;164.35;44.72;;;;;;;;;;4940681;29;20198;-45
2023/12/29 12:46:03;;;;;;;208.60;57.55;;;;;;;;;;4949017;29;20657;-44
2023/12/29 12:48:49;;;;;;;161.57;44.95;;;;;;;;;;4952434;28;20183;-44
2023/12/29 12:51:15;;;;;;;205.18;55.17;;;;;;;;;;4937117;29;20175;-45
2023/12/29 12:53:44;;;;;;;153.60;42.25;;;;;;;;;;4936793;29;20722;-44
2023/12/29 12:56:11;;;;;;;156.88;44.40;;;;;;;;;;4951149;29;20175;-44
2023/12/29 12:58:37;;;;;;;208.52;57.03;;;;;;;;;;4951922;28;20178;-44
2023/12/29 13:01:03;;;;;;;154.02;42.42;;;;;;;;;;4958222;28;20185;-44
2023/12/29 13:03:30;;;;;;;164.55;44.75;;;;;;;;;;4958783;28;20279;-44
2023/12/29 13:05:58;;;;;;;202.68;54.88;;;;;;;;;;4956197;28;20195;-44
2023/12/29 13:08:25;;;;;;;202.35;54.38;;;;;;;;;;4955995;28;20174;-44
2023/12/29 13:10:51;;;;;;;203.52;55.97;;;;;;;;;;4955870;28;20174;-45
2023/12/29 13:13:18;;;;;;;201.68;53.53;;;;;;;;;;4955684;28;20220;-46
2023/12/29 13:15:51;;;;;;;159.40;43.47;;;;;;;;;;4958799;28;20712;-44
2023/12/29 13:18:17;;;;;;;191.38;52.30;;;;;;;;;;4958101;28;20174;-44
2023/12/29 13:20:47;;;;;;;158.95;43.80;;;;;;;;;;4960521;28;20257;-44
2023/12/29 13:23:13;;;;;;;200.50;53.97;;;;;;;;;;4955634;28;20202;-44
2023/12/29 13:25:40;;;;;;;200.43;53.80;;;;;;;;;;4955793;28;20253;-45
2023/12/29 13:28:06;;;;;;;201.90;53.65;;;;;;;;;;4955541;28;20189;-45
2023/12/29 13:30:33;;;;;;;207.85;58.85;;;;;;;;;;4955414;28;20174;-44
2023/12/29 13:32:59;;;;;;;202.07;54.30;;;;;;;;;;4955301;28;20677;-44
2023/12/29 13:35:30;;;;;;;201.75;55.13;;;;;;;;;;4955581;28;20178;-46
2023/12/29 13:38:03;;;;;;;201.15;54.63;;;;;;;;;;4955631;28;20179;-45
2023/12/29 13:40:40;;;;;;;206.77;59.47;;;;;;;;;;4955290;28;20250;-45
2023/12/29 13:43:07;;;;;;;204.77;55.83;;;;;;;;;;4955097;28;20206;-44
2023/12/29 13:45:33;;;;;;;204.55;55.88;;;;;;;;;;4954694;28;20232;-45
2023/12/29 13:47:59;;;;;;;206.05;57.42;;;;;;;;;;4955203;28;20650;-45
2023/12/29 13:50:26;;;;;;;211.20;61.70;;;;;;;;;;4955080;28;20662;-45
2023/12/29 13:52:52;;;;;;;151.73;41.03;;;;;;;;;;4955043;28;20210;-45
2023/12/29 13:55:22;;;;;;;205.15;54.88;;;;;;;;;;4955139;28;20175;-45
2023/12/29 13:57:49;;;;;;;204.75;54.33;;;;;;;;;;4954976;28;20177;-45
2023/12/29 14:00:15;;;;;;;202.40;54.25;;;;;;;;;;4955094;28;20643;-45
2023/12/29 14:02:41;;;;;;;204.32;54.10;;;;;;;;;;4954027;28;20202;-44
2023/12/29 14:05:19;;;;;;;205.17;55.20;;;;;;;;;;4954646;28;20198;-45